This is the latest recevied weather packets stored in our database for station/object K6CED. If no packets are shown the sender has not sent any weather packets the latest 10 day(s).
| Time | Temp. | Humidity | Pressure | Rain* | Wind** | Luminosity | Snow |
|---|---|---|---|---|---|---|---|
| 1787593166 | 33.89° C | 33% | 1017.9 hPa | 0 mm | - | 732 W/m² | - |
| 1787592865 | 33.89° C | 33% | 1017.9 hPa | 0 mm | - | 723 W/m² | - |
| 1787592559 | 34.44° C | 32% | 1017.8 hPa | 0 mm | - | 710 W/m² | - |
| 1787592254 | 33.89° C | 33% | 1018 hPa | 0 mm | - | 697 W/m² | - |
| 1787591950 | 33.33° C | 35% | 1018 hPa | 0 mm | - | 687 W/m² | - |
| 1787591645 | 32.78° C | 36% | 1017.9 hPa | 0 mm | - | 670 W/m² | - |
| 1787591341 | 32.22° C | 38% | 1018 hPa | 0 mm | - | 657 W/m² | - |
| 1787591036 | 31.67° C | 39% | 1017.9 hPa | 0 mm | - | 637 W/m² | - |
| 1787590732 | 31.67° C | 40% | 1017.8 hPa | 0 mm | - | 621 W/m² | - |
| 1787590427 | 31.67° C | 39% | 1017.8 hPa | 0 mm | - | 602 W/m² | - |
| 1787590122 | 31.11° C | 41% | 1017.8 hPa | 0 mm | - | 582 W/m² | - |
| 1787589818 | 30.56° C | 41% | 1018 hPa | 0 mm | - | 563 W/m² | - |
| 1787589513 | 30.56° C | 41% | 1017.9 hPa | 0 mm | - | 548 W/m² | - |
| 1787589208 | 30.56° C | 42% | 1017.8 hPa | 0 mm | - | 536 W/m² | - |
| 1787588904 | 30° C | 43% | 1018 hPa | 0 mm | - | 524 W/m² | - |
| 1787588599 | 30° C | 42% | 1018 hPa | 0 mm | - | 512 W/m² | - |
| 1787588295 | 29.44° C | 44% | 1018 hPa | 0 mm | - | 501 W/m² | - |
| 1787587990 | 29.44° C | 42% | 1018 hPa | 0 mm | - | 417 W/m² | - |
| 1787587686 | 30° C | 43% | 1018.1 hPa | 0 mm | - | 463 W/m² | - |
| 1787587381 | 28.89° C | 45% | 1018 hPa | 0 mm | - | 458 W/m² | - |
| 1787587074 | 28.33° C | 45% | 1018.1 hPa | 0 mm | - | 445 W/m² | - |
| 1787586769 | 28.89° C | 43% | 1018.1 hPa | 0 mm | - | 439 W/m² | - |
| 1787586464 | 28.89° C | 43% | 1018.1 hPa | 0 mm | - | 418 W/m² | - |
| 1787586160 | 28.33° C | 44% | 1018.2 hPa | 0 mm | - | 409 W/m² | - |
| 1787585856 | 26.67° C | 47% | 1018.2 hPa | 0 mm | - | 333 W/m² | - |
* Rain latest hour (hover to see other rain measurements)
** Current wind speed in m/s (hover to see current wind gust speed)